createdAt,value
2022-07-30T00:01:28.559Z,85.08
2022-07-30T00:04:17.086Z,85.05
2022-07-30T00:07:05.476Z,85.98
2022-07-30T00:09:53.884Z,86.29
2022-07-30T00:12:42.338Z,86.59
2022-07-30T00:15:32.319Z,86.88
2022-07-30T00:18:22.336Z,86.88
2022-07-30T00:21:11.102Z,87.38
2022-07-30T00:24:01.813Z,87.07
2022-07-30T00:26:50.732Z,87.01
2022-07-30T00:29:39.168Z,86.67
2022-07-30T00:32:34.906Z,86.78
2022-07-30T00:35:23.554Z,86.72
2022-07-30T00:38:12.597Z,87.17
2022-07-30T00:41:01.124Z,87.42
2022-07-30T00:43:49.641Z,86.97
2022-07-30T00:46:40.245Z,86.31
2022-07-30T00:49:30.304Z,86.39
2022-07-30T00:52:18.853Z,86.04
2022-07-30T00:55:09.828Z,85.93
2022-07-30T00:57:58.386Z,85.84
2022-07-30T01:00:46.802Z,85.76
2022-07-30T01:03:35.218Z,85.50
2022-07-30T01:06:25.207Z,85.23
2022-07-30T01:09:13.767Z,85.03
2022-07-30T01:12:02.716Z,84.92
2022-07-30T01:14:51.478Z,84.52
2022-07-30T01:17:40.492Z,85.38
2022-07-30T01:20:33.628Z,85.42
2022-07-30T01:23:28.926Z,84.85
2022-07-30T01:26:22.269Z,85.21
2022-07-30T01:29:14.484Z,85.58
2022-07-30T01:32:04.004Z,84.45
2022-07-30T01:34:54.726Z,84.01
2022-07-30T01:37:45.785Z,84.53
2022-07-30T01:40:36.239Z,84.37
2022-07-30T01:43:26.892Z,84.14
2022-07-30T01:46:17.729Z,84.38
2022-07-30T01:49:10.775Z,84.58
2022-07-30T01:52:01.213Z,84.63
2022-07-30T01:54:52.318Z,84.62
2022-07-30T01:57:41.705Z,84.80
2022-07-30T02:00:34.142Z,85.49
2022-07-30T02:03:22.730Z,85.24
2022-07-30T02:06:18.966Z,85.06
2022-07-30T02:09:11.152Z,84.88
2022-07-30T02:12:20.905Z,85.63
2022-07-30T02:15:15.734Z,85.69
2022-07-30T02:18:11.974Z,85.37
2022-07-30T02:21:07.208Z,85.47
2022-07-30T02:23:57.586Z,85.97
2022-07-30T02:26:52.106Z,85.86
2022-07-30T02:29:41.492Z,86.42
2022-07-30T02:32:36.312Z,86.54
2022-07-30T02:35:28.716Z,86.31
2022-07-30T02:38:19.864Z,86.59
2022-07-30T02:41:11.024Z,86.57
2022-07-30T02:44:01.414Z,86.51
2022-07-30T02:46:52.512Z,86.91
2022-07-30T02:50:01.449Z,86.63
2022-07-30T02:52:53.097Z,86.48
2022-07-30T02:55:43.990Z,86.65
2022-07-30T02:58:37.972Z,86.51
2022-07-30T03:01:27.633Z,86.27
2022-07-30T03:04:20.030Z,86.24
2022-07-30T03:07:10.785Z,85.67
2022-07-30T03:10:02.253Z,85.92
2022-07-30T03:12:52.515Z,85.74
2022-07-30T03:15:49.011Z,85.71
2022-07-30T03:18:40.351Z,86.02
2022-07-30T03:21:30.183Z,85.79
2022-07-30T03:24:20.238Z,85.33
2022-07-30T03:27:11.047Z,85.66
2022-07-30T03:30:02.342Z,86.04
2022-07-30T03:32:51.924Z,86.01
2022-07-30T03:35:42.794Z,85.89
2022-07-30T03:38:32.299Z,85.95
2022-07-30T03:41:22.221Z,85.77
2022-07-30T03:44:13.119Z,86.26
2022-07-30T03:47:06.291Z,86.29
2022-07-30T03:50:00.670Z,86.45
2022-07-30T03:52:49.997Z,86.49
2022-07-30T03:55:39.419Z,86.47
2022-07-30T03:59:00.217Z,86.78
2022-07-30T04:01:50.143Z,86.66
2022-07-30T04:05:08.597Z,86.66
2022-07-30T04:07:57.056Z,86.78
2022-07-30T04:10:49.447Z,86.26
2022-07-30T04:13:56.336Z,85.86
2022-07-30T04:16:51.889Z,86.25
2022-07-30T04:19:49.444Z,86.00
2022-07-30T04:22:38.899Z,86.53
2022-07-30T04:25:29.591Z,86.39
2022-07-30T04:28:21.033Z,85.63
2022-07-30T04:31:09.839Z,85.92
2022-07-30T04:34:04.627Z,85.75
2022-07-30T04:37:00.517Z,85.10
2022-07-30T04:39:54.245Z,84.97
2022-07-30T04:42:43.011Z,85.00
2022-07-30T04:45:33.295Z,84.92
2022-07-30T04:48:23.131Z,84.85
2022-07-30T04:51:42.196Z,84.50
2022-07-30T04:54:39.001Z,84.26
2022-07-30T04:57:29.660Z,84.25
2022-07-30T05:00:18.700Z,85.00
2022-07-30T05:03:09.689Z,84.59
2022-07-30T05:05:58.854Z,84.56
2022-07-30T05:08:52.942Z,84.42
2022-07-30T05:11:42.711Z,84.10
2022-07-30T05:14:31.680Z,84.86
2022-07-30T05:17:20.125Z,84.63
2022-07-30T05:20:09.764Z,84.50
2022-07-30T05:23:16.732Z,84.32
2022-07-30T05:26:13.344Z,84.83
2022-07-30T05:29:06.969Z,85.14
2022-07-30T05:32:08.650Z,84.73
2022-07-30T05:34:59.348Z,84.97
2022-07-30T05:37:49.275Z,86.24
2022-07-30T05:40:38.603Z,85.24
2022-07-30T05:44:07.050Z,85.23
2022-07-30T05:46:55.430Z,85.43
2022-07-30T05:49:44.718Z,84.73
2022-07-30T05:52:35.884Z,84.18
2022-07-30T05:55:36.601Z,83.93
2022-07-30T05:58:33.217Z,83.76
2022-07-30T06:01:23.301Z,83.99
2022-07-30T06:04:11.965Z,83.20
2022-07-30T06:07:07.359Z,83.26
2022-07-30T06:10:00.131Z,82.53
2022-07-30T06:12:49.234Z,82.10
2022-07-30T06:15:39.795Z,82.12
2022-07-30T06:18:29.736Z,81.58
2022-07-30T06:21:18.935Z,81.65
2022-07-30T06:24:29.760Z,80.74
2022-07-30T06:27:26.081Z,80.85
2022-07-30T06:30:15.940Z,80.11
2022-07-30T06:33:04.463Z,80.25
2022-07-30T06:35:54.341Z,79.18
2022-07-30T06:38:45.952Z,79.29
2022-07-30T06:41:37.325Z,78.35
2022-07-30T06:44:25.675Z,77.65
2022-07-30T06:47:28.547Z,77.77
2022-07-30T06:50:20.451Z,77.79
2022-07-30T06:53:10.186Z,77.16
2022-07-30T06:56:21.697Z,77.27
2022-07-30T06:59:15.192Z,76.66
2022-07-30T07:02:22.528Z,76.43
2022-07-30T07:05:33.869Z,75.63
2022-07-30T07:08:25.241Z,75.58
2022-07-30T07:11:15.783Z,74.74
2022-07-30T07:14:15.167Z,74.85
2022-07-30T07:17:03.777Z,74.56
2022-07-30T07:20:11.656Z,73.58
2022-07-30T07:23:12.368Z,73.24
2022-07-30T07:26:03.807Z,73.10
2022-07-30T07:28:53.554Z,73.18
2022-07-30T07:32:05.399Z,72.91
2022-07-30T07:34:50.615Z,72.03
2022-07-30T07:37:39.242Z,72.13
2022-07-30T07:40:28.816Z,71.19
2022-07-30T07:43:19.967Z,71.61
2022-07-30T07:46:08.846Z,71.27
2022-07-30T07:48:57.994Z,71.48
2022-07-30T07:51:55.714Z,70.62
2022-07-30T07:54:44.821Z,70.04
2022-07-30T07:57:33.218Z,69.87
2022-07-30T08:00:23.429Z,69.36
2022-07-30T08:03:12.544Z,69.85
2022-07-30T08:06:06.289Z,69.42
2022-07-30T08:09:13.670Z,69.96
2022-07-30T08:12:23.507Z,69.66
2022-07-30T08:15:32.676Z,68.77
2022-07-30T08:18:56.178Z,69.17
2022-07-30T08:21:59.769Z,69.34
2022-07-30T08:24:51.967Z,69.72
2022-07-30T08:27:40.494Z,68.91
2022-07-30T08:30:33.038Z,68.08
2022-07-30T08:33:21.722Z,68.32
2022-07-30T08:36:16.033Z,69.08
2022-07-30T08:39:04.750Z,69.52
2022-07-30T08:41:53.959Z,68.73
2022-07-30T08:44:45.530Z,68.43
2022-07-30T08:47:39.535Z,68.66
2022-07-30T08:50:33.765Z,69.01
2022-07-30T08:53:56.398Z,69.62
2022-07-30T08:56:46.188Z,68.83
2022-07-30T08:59:59.179Z,70.44
2022-07-30T09:02:44.931Z,69.73
2022-07-30T09:05:34.580Z,69.85
2022-07-30T09:08:23.129Z,69.19
2022-07-30T09:11:12.492Z,67.95
2022-07-30T09:14:10.164Z,66.77
2022-07-30T09:16:59.315Z,66.44
2022-07-30T09:20:05.354Z,66.45
2022-07-30T09:22:58.819Z,66.21
2022-07-30T09:25:48.640Z,66.59
2022-07-30T09:28:56.100Z,65.95
2022-07-30T09:32:06.991Z,64.88
2022-07-30T09:35:16.450Z,64.83
2022-07-30T09:38:24.031Z,64.14
2022-07-30T09:41:47.775Z,63.38
2022-07-30T09:44:37.232Z,62.94
2022-07-30T09:47:32.608Z,62.40
2022-07-30T09:50:30.295Z,62.31
2022-07-30T09:53:22.499Z,61.93
2022-07-30T09:56:25.763Z,62.35
2022-07-30T09:59:28.546Z,62.26
2022-07-30T10:02:32.217Z,62.25
2022-07-30T10:05:51.382Z,61.62
2022-07-30T10:08:46.122Z,61.62
2022-07-30T10:11:36.446Z,61.44
2022-07-30T10:14:33.900Z,61.07
2022-07-30T10:17:32.854Z,61.63
2022-07-30T10:20:53.147Z,61.74
2022-07-30T10:24:11.824Z,61.04
2022-07-30T10:27:21.577Z,60.89
2022-07-30T10:30:32.126Z,60.35
2022-07-30T10:33:34.780Z,60.47
2022-07-30T10:36:28.398Z,60.53
2022-07-30T10:39:21.671Z,60.78
2022-07-30T10:42:28.584Z,61.09
2022-07-30T10:45:19.798Z,60.57
2022-07-30T10:48:08.448Z,61.01
2022-07-30T10:50:59.969Z,61.09
2022-07-30T10:53:51.072Z,60.76
2022-07-30T10:56:40.542Z,60.36
2022-07-30T10:59:30.079Z,60.91
2022-07-30T11:02:20.752Z,60.97
2022-07-30T11:05:44.244Z,60.66
2022-07-30T11:08:42.772Z,59.91
2022-07-30T11:12:02.311Z,60.76
2022-07-30T11:15:06.908Z,59.64
2022-07-30T11:18:12.665Z,58.98
2022-07-30T11:21:22.798Z,59.37
2022-07-30T11:24:41.010Z,59.50
2022-07-30T11:27:41.457Z,59.25
2022-07-30T11:30:36.195Z,58.85
2022-07-30T11:33:32.030Z,58.72
2022-07-30T11:36:21.319Z,58.66
2022-07-30T11:39:12.818Z,57.88
2022-07-30T11:42:25.848Z,57.54
2022-07-30T11:45:30.960Z,58.11
2022-07-30T11:48:21.358Z,57.88
2022-07-30T11:51:10.101Z,58.00
2022-07-30T11:54:02.778Z,58.53
2022-07-30T11:56:53.136Z,58.46
2022-07-30T11:59:54.442Z,58.55
2022-07-30T12:02:45.600Z,58.38
2022-07-30T12:05:34.139Z,58.69
2022-07-30T12:08:33.451Z,57.99
2022-07-30T12:11:24.947Z,58.30
2022-07-30T12:14:14.179Z,57.38
2022-07-30T12:17:03.003Z,56.83
2022-07-30T12:19:53.114Z,57.12
2022-07-30T12:22:41.758Z,57.23
2022-07-30T12:25:30.553Z,56.90
2022-07-30T12:28:23.991Z,56.08
2022-07-30T12:31:16.626Z,56.08
2022-07-30T12:34:05.117Z,56.38
2022-07-30T12:36:56.013Z,55.10
2022-07-30T12:39:44.498Z,53.53
2022-07-30T12:42:32.999Z,52.69
2022-07-30T12:45:29.615Z,53.99
2022-07-30T12:48:38.248Z,54.18
2022-07-30T12:51:29.787Z,54.93
2022-07-30T12:54:21.264Z,55.24
2022-07-30T12:57:09.603Z,56.17
2022-07-30T13:00:07.367Z,56.54
2022-07-30T13:02:56.628Z,56.01
2022-07-30T13:05:49.940Z,56.07
2022-07-30T13:08:49.388Z,56.53
2022-07-30T13:11:48.776Z,56.33
2022-07-30T13:14:37.643Z,55.62
2022-07-30T13:17:26.044Z,57.09
2022-07-30T13:20:16.177Z,57.21
2022-07-30T13:23:04.689Z,57.04
2022-07-30T13:25:53.770Z,56.52
2022-07-30T13:28:43.752Z,56.73
2022-07-30T13:31:42.899Z,56.68
2022-07-30T13:34:32.004Z,58.87
2022-07-30T13:37:20.508Z,62.15
2022-07-30T13:40:12.463Z,71.72
2022-07-30T13:43:01.345Z,79.52
2022-07-30T13:45:52.330Z,83.41
2022-07-30T13:48:40.981Z,86.00
2022-07-30T13:51:29.668Z,86.97
2022-07-30T13:54:18.137Z,89.78
2022-07-30T13:57:06.608Z,91.78
2022-07-30T13:59:55.072Z,91.38
2022-07-30T14:02:45.113Z,94.99
2022-07-30T14:05:34.299Z,94.56
2022-07-30T14:08:22.858Z,92.82
2022-07-30T14:11:11.373Z,96.54
2022-07-30T14:13:59.895Z,97.25
2022-07-30T14:16:58.595Z,97.37
2022-07-30T14:19:50.374Z,95.72
2022-07-30T14:22:39.140Z,95.60
2022-07-30T14:25:27.624Z,96.22
2022-07-30T14:28:16.235Z,95.85
2022-07-30T14:31:04.727Z,92.83
2022-07-30T14:33:53.232Z,96.27
2022-07-30T14:36:43.833Z,95.92
2022-07-30T14:39:32.303Z,95.59
2022-07-30T14:42:21.159Z,96.65
2022-07-30T14:45:11.297Z,93.31
2022-07-30T14:47:59.837Z,93.75
2022-07-30T14:51:12.138Z,95.61
2022-07-30T14:54:00.656Z,95.67
2022-07-30T14:56:49.116Z,93.62
2022-07-30T14:59:37.582Z,94.30
2022-07-30T15:02:26.045Z,94.37
2022-07-30T15:05:14.424Z,93.04
2022-07-30T15:08:02.817Z,92.82
2022-07-30T15:10:52.709Z,92.26
2022-07-30T15:13:50.022Z,91.31
2022-07-30T15:16:39.207Z,92.44
2022-07-30T15:19:27.590Z,91.89
2022-07-30T15:22:15.993Z,90.06
2022-07-30T15:25:05.135Z,89.50
2022-07-30T15:27:55.033Z,91.67
2022-07-30T15:30:43.625Z,92.60
2022-07-30T15:33:36.694Z,90.83
2022-07-30T15:36:25.597Z,91.31
2022-07-30T15:39:15.485Z,90.47
2022-07-30T15:42:06.377Z,90.06
2022-07-30T15:45:16.163Z,90.47
2022-07-30T15:48:05.279Z,93.19
2022-07-30T15:50:53.728Z,92.66
2022-07-30T15:53:42.153Z,95.40
2022-07-30T15:56:33.403Z,95.53
2022-07-30T15:59:22.506Z,93.12
2022-07-30T16:02:12.499Z,92.76
2022-07-30T16:05:01.034Z,92.67
2022-07-30T16:07:50.647Z,93.41
2022-07-30T16:10:40.726Z,94.08
2022-07-30T16:13:29.186Z,94.13
2022-07-30T16:16:17.686Z,98.03
2022-07-30T16:19:07.784Z,100.00
2022-07-30T16:21:56.633Z,100.00
2022-07-30T16:24:45.234Z,100.00
2022-07-30T16:27:35.474Z,100.00
2022-07-30T16:30:27.599Z,100.00
2022-07-30T16:33:16.133Z,100.00
2022-07-30T16:36:06.302Z,99.08
2022-07-30T16:38:54.838Z,97.88
2022-07-30T16:41:43.505Z,100.00
2022-07-30T16:44:34.106Z,100.00
2022-07-30T16:47:22.631Z,100.00
2022-07-30T16:50:11.775Z,100.00
2022-07-30T16:53:01.769Z,100.00
2022-07-30T16:55:50.198Z,100.00
2022-07-30T16:58:38.802Z,100.00
2022-07-30T17:01:28.856Z,100.00
2022-07-30T17:04:17.819Z,100.00
2022-07-30T17:07:06.296Z,100.00
2022-07-30T17:09:56.008Z,100.00
2022-07-30T17:12:51.022Z,100.00
2022-07-30T17:15:40.358Z,100.00
2022-07-30T17:18:28.752Z,100.00
2022-07-30T17:21:17.609Z,100.00
2022-07-30T17:24:11.228Z,100.00
2022-07-30T17:27:01.343Z,100.00
2022-07-30T17:29:50.821Z,100.00
2022-07-30T17:32:39.446Z,100.00
2022-07-30T17:35:27.915Z,100.00
2022-07-30T17:38:16.422Z,100.00
2022-07-30T17:41:04.924Z,100.00
2022-07-30T17:43:54.685Z,100.00
2022-07-30T17:46:43.150Z,100.00
2022-07-30T17:49:31.507Z,100.00
2022-07-30T17:52:23.388Z,100.00
2022-07-30T17:55:14.785Z,100.00
2022-07-30T17:58:03.503Z,100.00
2022-07-30T18:00:53.399Z,100.00
2022-07-30T18:03:45.022Z,100.00
2022-07-30T18:06:33.770Z,100.00
2022-07-30T18:09:22.563Z,100.00
2022-07-30T18:12:11.169Z,100.00
2022-07-30T18:14:59.693Z,100.00
2022-07-30T18:17:49.687Z,100.00
2022-07-30T18:20:38.269Z,100.00
2022-07-30T18:23:36.694Z,100.00
2022-07-30T18:26:25.118Z,100.00
2022-07-30T18:29:14.214Z,100.00
2022-07-30T18:32:02.887Z,100.00
2022-07-30T18:34:53.147Z,100.00
2022-07-30T18:37:42.043Z,100.00
2022-07-30T18:40:30.776Z,100.00
2022-07-30T18:43:19.220Z,100.00
2022-07-30T18:46:08.691Z,100.00
2022-07-30T18:49:06.989Z,100.00
2022-07-30T18:52:09.019Z,100.00
2022-07-30T18:54:57.413Z,100.00
2022-07-30T18:57:46.302Z,100.00
2022-07-30T19:00:43.276Z,100.00
2022-07-30T19:03:31.906Z,100.00
2022-07-30T19:06:21.506Z,100.00
2022-07-30T19:09:17.190Z,100.00
2022-07-30T19:12:06.814Z,100.00
2022-07-30T19:14:56.182Z,100.00
2022-07-30T19:17:45.909Z,100.00
2022-07-30T19:20:35.316Z,100.00
2022-07-30T19:23:23.804Z,100.00
2022-07-30T19:26:14.663Z,100.00
2022-07-30T19:29:03.338Z,100.00
2022-07-30T19:31:51.890Z,100.00
2022-07-30T19:34:41.044Z,100.00
2022-07-30T19:37:29.530Z,100.00
2022-07-30T19:40:18.955Z,100.00
2022-07-30T19:43:10.220Z,100.00
2022-07-30T19:45:58.926Z,100.00
2022-07-30T19:48:47.920Z,100.00
2022-07-30T19:52:10.054Z,100.00
2022-07-30T19:54:48.302Z,100.00
2022-07-30T19:57:53.085Z,100.00
2022-07-30T20:00:48.495Z,100.00
2022-07-30T20:03:39.027Z,100.00
2022-07-30T20:06:28.241Z,100.00
2022-07-30T20:09:17.718Z,100.00
2022-07-30T20:12:06.382Z,100.00
2022-07-30T20:14:56.071Z,100.00
2022-07-30T20:17:46.555Z,100.00
2022-07-30T20:20:35.125Z,100.00
2022-07-30T20:23:24.997Z,100.00
2022-07-30T20:26:15.283Z,100.00
2022-07-30T20:29:03.782Z,100.00
2022-07-30T20:31:59.159Z,100.00
2022-07-30T20:34:49.060Z,100.00
2022-07-30T20:37:54.613Z,100.00
2022-07-30T20:40:46.817Z,100.00
2022-07-30T20:43:35.245Z,100.00
2022-07-30T20:46:40.178Z,100.00
2022-07-30T20:49:34.264Z,100.00
2022-07-30T20:52:25.731Z,100.00
2022-07-30T20:55:16.652Z,100.00
2022-07-30T20:58:12.590Z,100.00
2022-07-30T21:01:05.008Z,100.00
2022-07-30T21:03:53.493Z,100.00
2022-07-30T21:06:46.172Z,100.00
2022-07-30T21:09:52.029Z,100.00
2022-07-30T21:12:41.062Z,100.00
2022-07-30T21:15:33.802Z,100.00
2022-07-30T21:18:23.324Z,100.00
2022-07-30T21:21:12.215Z,100.00
2022-07-30T21:24:03.259Z,100.00
2022-07-30T21:26:54.166Z,100.00
2022-07-30T21:29:42.904Z,100.00
2022-07-30T21:32:31.390Z,100.00
2022-07-30T21:35:20.104Z,100.00
2022-07-30T21:38:09.001Z,100.00
2022-07-30T21:40:57.377Z,100.00
2022-07-30T21:43:49.342Z,100.00
2022-07-30T21:46:40.620Z,100.00
2022-07-30T21:49:31.625Z,100.00
2022-07-30T21:52:20.276Z,100.00
2022-07-30T21:55:09.800Z,100.00
2022-07-30T21:58:02.034Z,100.00
2022-07-30T22:01:17.348Z,100.00
2022-07-30T22:04:08.420Z,100.00
2022-07-30T22:07:00.486Z,100.00
2022-07-30T22:09:50.395Z,100.00
2022-07-30T22:12:39.131Z,100.00
2022-07-30T22:15:27.639Z,100.00
2022-07-30T22:18:17.847Z,100.00
2022-07-30T22:21:09.350Z,100.00
2022-07-30T22:23:59.861Z,100.00
2022-07-30T22:26:50.827Z,100.00
2022-07-30T22:29:42.649Z,100.00
2022-07-30T22:32:31.316Z,100.00
2022-07-30T22:35:33.941Z,100.00
2022-07-30T22:38:22.705Z,100.00
2022-07-30T22:41:14.197Z,100.00
2022-07-30T22:44:02.681Z,100.00
2022-07-30T22:46:56.334Z,100.00
2022-07-30T22:49:46.254Z,100.00
2022-07-30T22:52:56.966Z,100.00
2022-07-30T22:55:48.313Z,100.00
2022-07-30T22:58:36.728Z,100.00
2022-07-30T23:01:25.294Z,100.00
2022-07-30T23:04:14.425Z,100.00
2022-07-30T23:07:05.512Z,100.00
2022-07-30T23:09:55.269Z,100.00
2022-07-30T23:12:44.541Z,100.00
2022-07-30T23:15:33.398Z,100.00
2022-07-30T23:18:22.342Z,100.00
2022-07-30T23:21:10.816Z,100.00
2022-07-30T23:23:59.824Z,100.00
2022-07-30T23:26:50.513Z,100.00
2022-07-30T23:29:38.894Z,100.00
2022-07-30T23:32:27.418Z,100.00
2022-07-30T23:35:15.919Z,100.00
2022-07-30T23:38:04.486Z,100.00
2022-07-30T23:40:52.917Z,100.00
2022-07-30T23:43:42.804Z,100.00
2022-07-30T23:46:31.210Z,100.00
2022-07-30T23:49:19.719Z,100.00
2022-07-30T23:52:09.694Z,100.00
2022-07-30T23:54:59.300Z,100.00
2022-07-30T23:57:47.707Z,100.00
